Lolo, Montana
Current Conditions -  °F | °C
As of 2:53 AM on Friday 24 Oct 2014 (Local Time) from KMSO Reporting Station
Overcast Overcast  
Wind Chill: 46°   Ceiling: 7500
Heat Index: 46°   Visibility: 10mi
Dew Point: 43°   Wind: 3mph
Humidity: 89%   Direction: 290°WNW
Pressure: 30.05"   Gusts: NA
Location:  46.75°N, 114.09°W
Report Text: KMSO 240853Z AUTO 29003KT 10SM FEW046 OVC075 08/06 A3005 RMK AO2 SLP173 60000 T00780061 53009
Loading
Personal Weather Stations






























Interactive Weather Map
Tropical Storm Tracking
New forecast layout! Learn more

10-Day Weather Forecast

Advertisements
Track Severe Weather on mobile